createdAt,value
2019-03-06T00:02:01.731Z,14.60
2019-03-06T00:04:33.828Z,13.03
2019-03-06T00:07:04.528Z,14.70
2019-03-06T00:09:36.332Z,13.70
2019-03-06T00:12:07.448Z,12.83
2019-03-06T00:14:39.102Z,13.43
2019-03-06T00:17:09.969Z,14.27
2019-03-06T00:19:41.264Z,13.33
2019-03-06T00:22:11.979Z,14.43
2019-03-06T00:24:43.329Z,13.07
2019-03-06T00:27:13.763Z,13.03
2019-03-06T00:29:43.815Z,14.40
2019-03-06T00:32:15.276Z,12.77
2019-03-06T00:34:46.145Z,12.73
2019-03-06T00:37:17.684Z,12.97
2019-03-06T00:40:04.941Z,12.50
2019-03-06T00:42:38.070Z,12.77
2019-03-06T00:45:10.484Z,11.00
2019-03-06T00:47:42.012Z,12.97
2019-03-06T00:50:13.623Z,12.10
2019-03-06T00:52:44.052Z,11.87
2019-03-06T00:55:14.165Z,13.03
2019-03-06T00:57:44.783Z,12.97
2019-03-06T01:00:16.492Z,12.80
2019-03-06T01:02:50.023Z,13.43
2019-03-06T01:05:20.771Z,13.70
2019-03-06T01:07:51.490Z,14.30
2019-03-06T01:10:22.223Z,13.80
2019-03-06T01:12:52.831Z,13.30
2019-03-06T01:15:23.253Z,14.23
2019-03-06T01:17:54.254Z,12.43
2019-03-06T01:20:25.987Z,12.97
2019-03-06T01:22:57.055Z,13.50
2019-03-06T01:25:28.567Z,12.77
2019-03-06T01:28:00.145Z,13.50
2019-03-06T01:30:30.928Z,13.07
2019-03-06T01:33:17.214Z,13.93
2019-03-06T01:36:10.030Z,12.47
2019-03-06T01:39:16.114Z,13.93
2019-03-06T01:41:54.685Z,11.53
2019-03-06T01:44:30.710Z,13.30
2019-03-06T01:47:01.534Z,12.30
2019-03-06T01:49:32.931Z,12.63
2019-03-06T01:52:03.542Z,12.73
2019-03-06T01:54:34.331Z,12.00
2019-03-06T01:57:05.175Z,13.83
2019-03-06T01:59:36.292Z,12.07
2019-03-06T02:02:07.075Z,14.10
2019-03-06T02:04:37.571Z,13.80
2019-03-06T02:07:09.614Z,12.17
2019-03-06T02:09:40.846Z,13.37
2019-03-06T02:12:11.548Z,14.20
2019-03-06T02:14:42.419Z,12.80
2019-03-06T02:17:13.614Z,12.47
2019-03-06T02:19:45.745Z,12.73
2019-03-06T02:22:16.192Z,13.87
2019-03-06T02:24:47.007Z,12.87
2019-03-06T02:27:18.864Z,12.77
2019-03-06T02:29:49.787Z,11.67
2019-03-06T02:32:20.056Z,12.90
2019-03-06T02:34:50.364Z,13.00
2019-03-06T02:37:23.994Z,13.47
2019-03-06T02:39:54.656Z,13.30
2019-03-06T02:42:25.383Z,12.67
2019-03-06T02:44:56.445Z,13.30
2019-03-06T02:47:28.896Z,12.67
2019-03-06T02:49:59.493Z,12.50
2019-03-06T02:52:30.222Z,12.97
2019-03-06T02:55:00.901Z,13.33
2019-03-06T02:57:31.854Z,14.37
2019-03-06T03:00:20.482Z,12.97
2019-03-06T03:03:04.059Z,12.40
2019-03-06T03:05:43.171Z,13.17
2019-03-06T03:08:13.651Z,13.67
2019-03-06T03:10:48.007Z,11.83
2019-03-06T03:13:19.480Z,13.70
2019-03-06T03:15:50.224Z,13.47
2019-03-06T03:18:21.464Z,12.53
2019-03-06T03:20:52.474Z,12.60
2019-03-06T03:23:23.491Z,14.10
2019-03-06T03:25:54.495Z,15.00
2019-03-06T03:28:25.692Z,14.47
2019-03-06T03:30:58.798Z,15.97
2019-03-06T03:33:30.008Z,13.90
2019-03-06T03:36:01.095Z,14.23
2019-03-06T03:38:31.513Z,14.10
2019-03-06T03:41:02.263Z,12.83
2019-03-06T03:43:32.716Z,13.87
2019-03-06T03:46:03.580Z,13.17
2019-03-06T03:48:35.010Z,14.23
2019-03-06T03:51:05.844Z,14.50
2019-03-06T03:53:36.242Z,14.30
2019-03-06T03:56:07.778Z,13.60
2019-03-06T03:58:38.931Z,13.77
2019-03-06T04:01:09.352Z,14.30
2019-03-06T04:03:40.297Z,14.00
2019-03-06T04:06:10.935Z,13.97
2019-03-06T04:08:41.414Z,13.57
2019-03-06T04:11:11.807Z,14.07
2019-03-06T04:13:42.847Z,12.83
2019-03-06T04:16:13.683Z,14.13
2019-03-06T04:18:44.455Z,13.70
2019-03-06T04:21:15.075Z,12.60
2019-03-06T04:23:45.664Z,13.50
2019-03-06T04:26:16.177Z,14.80
2019-03-06T04:28:46.624Z,14.83
2019-03-06T04:31:17.669Z,14.20
2019-03-06T04:33:48.639Z,15.20
2019-03-06T04:36:19.352Z,16.63
2019-03-06T04:38:50.018Z,16.00
2019-03-06T04:41:21.027Z,15.67
2019-03-06T04:43:52.096Z,15.37
2019-03-06T04:46:23.491Z,15.97
2019-03-06T04:48:54.582Z,12.90
2019-03-06T04:51:25.994Z,15.57
2019-03-06T04:53:57.796Z,13.80
2019-03-06T04:56:28.839Z,16.07
2019-03-06T04:58:59.669Z,16.50
2019-03-06T05:01:30.784Z,15.80
2019-03-06T05:04:01.800Z,16.07
2019-03-06T05:06:32.983Z,14.73
2019-03-06T05:09:04.907Z,14.77
2019-03-06T05:11:35.274Z,15.70
2019-03-06T05:14:06.383Z,14.90
2019-03-06T05:17:01.500Z,15.43
2019-03-06T05:19:32.441Z,14.10
2019-03-06T05:22:02.757Z,15.03
2019-03-06T05:24:34.289Z,14.40
2019-03-06T05:27:04.831Z,16.60
2019-03-06T05:29:36.066Z,16.20
2019-03-06T05:32:42.730Z,14.63
2019-03-06T05:35:26.869Z,16.20
2019-03-06T05:38:23.709Z,14.23
2019-03-06T05:40:54.875Z,16.40
2019-03-06T05:43:25.751Z,15.50
2019-03-06T05:45:56.855Z,15.23
2019-03-06T05:48:27.615Z,16.07
2019-03-06T05:50:59.028Z,16.17
2019-03-06T05:53:30.065Z,17.40
2019-03-06T05:56:01.413Z,16.63
2019-03-06T05:58:32.795Z,19.90
2019-03-06T06:01:03.150Z,19.50
2019-03-06T06:03:34.210Z,19.47
2019-03-06T06:06:05.249Z,20.90
2019-03-06T06:08:36.460Z,20.87
2019-03-06T06:11:07.789Z,21.33
2019-03-06T06:13:39.003Z,22.27
2019-03-06T06:16:09.756Z,22.07
2019-03-06T06:18:41.432Z,22.73
2019-03-06T06:21:37.611Z,23.20
2019-03-06T06:24:14.974Z,23.77
2019-03-06T06:26:45.814Z,22.57
2019-03-06T06:29:16.914Z,24.13
2019-03-06T06:31:48.071Z,25.60
2019-03-06T06:34:19.276Z,22.27
2019-03-06T06:36:49.744Z,23.60
2019-03-06T06:39:20.367Z,26.20
2019-03-06T06:41:50.849Z,24.93
2019-03-06T06:44:21.175Z,24.37
2019-03-06T06:46:52.064Z,24.33
2019-03-06T06:49:23.548Z,24.80
2019-03-06T06:52:23.420Z,25.67
2019-03-06T06:55:16.727Z,26.03
2019-03-06T06:58:15.304Z,25.80
2019-03-06T07:01:15.585Z,24.60
2019-03-06T07:04:26.545Z,25.53
2019-03-06T07:07:07.250Z,26.30
2019-03-06T07:09:50.793Z,26.50
2019-03-06T07:12:38.542Z,25.37
2019-03-06T07:15:27.180Z,26.70
2019-03-06T07:18:19.900Z,26.30
2019-03-06T07:21:11.293Z,25.20
2019-03-06T07:23:57.354Z,24.87
2019-03-06T07:26:53.065Z,27.10
2019-03-06T07:29:52.788Z,27.80
2019-03-06T07:32:41.833Z,27.30
2019-03-06T07:35:59.050Z,28.50
2019-03-06T07:38:30.557Z,28.53
2019-03-06T07:41:18.859Z,27.60
2019-03-06T07:44:13.194Z,30.13
2019-03-06T07:47:02.528Z,28.40
2019-03-06T07:49:48.197Z,28.50
2019-03-06T07:52:33.906Z,30.40
2019-03-06T07:55:26.753Z,31.47
2019-03-06T07:58:32.669Z,29.10
2019-03-06T08:01:03.244Z,28.90
2019-03-06T08:03:43.698Z,31.50
2019-03-06T08:06:14.559Z,28.47
2019-03-06T08:08:46.186Z,29.10
2019-03-06T08:11:28.031Z,27.80
2019-03-06T08:14:04.430Z,28.00
2019-03-06T08:16:40.711Z,27.73
2019-03-06T08:19:34.530Z,27.23
2019-03-06T08:22:36.574Z,25.13
2019-03-06T08:25:17.386Z,26.63
2019-03-06T08:27:48.333Z,25.20
2019-03-06T08:30:19.610Z,26.27
2019-03-06T08:32:50.324Z,27.60
2019-03-06T08:35:20.763Z,26.20
2019-03-06T08:37:51.291Z,26.03
2019-03-06T08:40:21.933Z,26.00
2019-03-06T08:42:52.923Z,25.90
2019-03-06T08:45:25.990Z,27.30
2019-03-06T08:48:16.245Z,28.60
2019-03-06T08:51:24.197Z,29.10
2019-03-06T08:54:09.384Z,27.20
2019-03-06T08:57:01.204Z,28.17
2019-03-06T08:59:40.282Z,28.10
2019-03-06T09:02:32.028Z,27.10
2019-03-06T09:05:40.504Z,27.00
2019-03-06T09:08:28.238Z,26.37
2019-03-06T09:11:11.311Z,26.77
2019-03-06T09:14:06.465Z,28.13
2019-03-06T09:16:51.879Z,27.57
2019-03-06T09:19:47.769Z,25.30
2019-03-06T09:22:43.380Z,26.20
2019-03-06T09:25:36.844Z,26.07
2019-03-06T09:28:22.789Z,25.87
2019-03-06T09:31:00.624Z,26.00
2019-03-06T09:33:55.872Z,27.40
2019-03-06T09:36:40.510Z,27.87
2019-03-06T09:39:31.384Z,26.93
2019-03-06T09:42:18.616Z,25.27
2019-03-06T09:45:20.190Z,25.33
2019-03-06T09:48:12.807Z,24.77
2019-03-06T09:50:53.973Z,25.10
2019-03-06T09:53:47.109Z,22.93
2019-03-06T09:56:39.408Z,22.57
2019-03-06T09:59:36.133Z,23.77
2019-03-06T10:02:32.712Z,23.43
2019-03-06T10:05:12.198Z,22.77
2019-03-06T10:08:05.550Z,23.13
2019-03-06T10:11:02.106Z,21.33
2019-03-06T10:13:47.202Z,23.13
2019-03-06T10:16:30.675Z,22.30
2019-03-06T10:19:13.232Z,22.33
2019-03-06T10:21:43.837Z,21.37
2019-03-06T10:24:14.551Z,23.30
2019-03-06T10:26:45.254Z,23.10
2019-03-06T10:29:16.092Z,22.17
2019-03-06T10:31:46.701Z,23.90
2019-03-06T10:34:17.356Z,23.97
2019-03-06T10:36:47.896Z,23.83
2019-03-06T10:39:19.217Z,24.30
2019-03-06T10:41:49.913Z,23.80
2019-03-06T10:44:28.812Z,23.93
2019-03-06T10:46:54.858Z,23.07
2019-03-06T10:49:26.211Z,21.73
2019-03-06T10:51:56.979Z,22.50
2019-03-06T10:54:27.943Z,21.70
2019-03-06T10:56:58.936Z,21.97
2019-03-06T10:59:29.448Z,23.87
2019-03-06T11:02:00.377Z,24.07
2019-03-06T11:04:40.002Z,19.70
2019-03-06T11:07:10.568Z,22.03
2019-03-06T11:09:41.214Z,22.37
2019-03-06T11:12:12.302Z,23.70
2019-03-06T11:14:44.641Z,21.77
2019-03-06T11:17:15.741Z,21.00
2019-03-06T11:19:46.954Z,20.33
2019-03-06T11:22:17.509Z,22.77
2019-03-06T11:24:48.585Z,22.00
2019-03-06T11:27:21.018Z,23.10
2019-03-06T11:29:51.760Z,21.83
2019-03-06T11:32:22.549Z,21.47
2019-03-06T11:34:53.883Z,20.90
2019-03-06T11:37:24.649Z,21.13
2019-03-06T11:39:55.692Z,20.67
2019-03-06T11:42:26.640Z,21.87
2019-03-06T11:44:57.217Z,22.63
2019-03-06T11:47:27.622Z,22.37
2019-03-06T11:49:58.813Z,24.07
2019-03-06T11:52:29.938Z,22.57
2019-03-06T11:55:06.215Z,23.03
2019-03-06T11:57:33.426Z,23.23
2019-03-06T12:00:04.877Z,23.00
2019-03-06T12:02:36.603Z,23.40
2019-03-06T12:05:07.743Z,22.50
2019-03-06T12:07:38.633Z,23.57
2019-03-06T12:10:10.316Z,22.90
2019-03-06T12:12:41.388Z,22.87
2019-03-06T12:15:13.102Z,23.03
2019-03-06T12:17:43.769Z,23.80
2019-03-06T12:20:14.319Z,24.53
2019-03-06T12:22:46.121Z,23.33
2019-03-06T12:25:17.238Z,23.00
2019-03-06T12:27:49.210Z,23.07
2019-03-06T12:30:20.503Z,21.63
2019-03-06T12:32:51.669Z,20.60
2019-03-06T12:35:22.997Z,21.07
2019-03-06T12:37:53.834Z,21.37
2019-03-06T12:40:26.157Z,20.73
2019-03-06T12:42:57.338Z,20.70
2019-03-06T12:45:28.590Z,22.07
2019-03-06T12:48:00.629Z,21.80
2019-03-06T12:50:32.871Z,21.50
2019-03-06T12:53:06.955Z,20.13
2019-03-06T12:55:37.421Z,20.50
2019-03-06T12:58:08.404Z,19.03
2019-03-06T13:00:39.680Z,20.17
2019-03-06T13:03:13.411Z,19.80
2019-03-06T13:05:44.080Z,19.80
2019-03-06T13:08:19.758Z,20.33
2019-03-06T13:10:46.870Z,18.67
2019-03-06T13:13:19.812Z,19.20
2019-03-06T13:15:51.801Z,20.63
2019-03-06T13:18:22.956Z,19.57
2019-03-06T13:20:53.679Z,19.07
2019-03-06T13:23:24.239Z,19.70
2019-03-06T13:25:55.198Z,18.43
2019-03-06T13:28:26.134Z,18.10
2019-03-06T13:30:59.980Z,20.50
2019-03-06T13:33:48.290Z,18.67
2019-03-06T13:36:18.979Z,20.70
2019-03-06T13:38:54.934Z,20.43
2019-03-06T13:41:22.891Z,19.23
2019-03-06T13:43:54.271Z,21.37
2019-03-06T13:46:26.270Z,21.07
2019-03-06T13:48:58.201Z,20.47
2019-03-06T13:51:29.436Z,20.07
2019-03-06T13:53:59.991Z,20.40
2019-03-06T13:56:30.923Z,19.53
2019-03-06T13:59:02.043Z,20.10
2019-03-06T14:01:33.889Z,20.20
2019-03-06T14:04:04.832Z,19.03
2019-03-06T14:06:36.407Z,19.63
2019-03-06T14:09:09.890Z,20.10
2019-03-06T14:11:40.178Z,21.60
2019-03-06T14:14:11.158Z,20.03
2019-03-06T14:16:42.038Z,20.20
2019-03-06T14:19:12.852Z,19.53
2019-03-06T14:21:43.437Z,19.60
2019-03-06T14:24:14.451Z,19.37
2019-03-06T14:26:46.308Z,20.60
2019-03-06T14:29:17.094Z,18.30
2019-03-06T14:31:48.069Z,18.67
2019-03-06T14:34:18.763Z,18.00
2019-03-06T14:36:49.720Z,18.50
2019-03-06T14:39:25.163Z,18.73
2019-03-06T14:41:56.481Z,17.60
2019-03-06T14:44:28.461Z,17.70
2019-03-06T14:46:58.903Z,17.10
2019-03-06T14:49:30.406Z,16.57
2019-03-06T14:52:07.103Z,17.27
2019-03-06T14:54:34.441Z,18.30
2019-03-06T14:57:05.092Z,18.00
2019-03-06T14:59:35.718Z,18.23
2019-03-06T15:02:06.593Z,17.33
2019-03-06T15:04:36.929Z,17.30
2019-03-06T15:07:07.237Z,17.90
2019-03-06T15:09:38.017Z,19.27
2019-03-06T15:12:09.852Z,16.87
2019-03-06T15:14:41.837Z,18.70
2019-03-06T15:17:12.292Z,18.40
2019-03-06T15:19:43.747Z,17.60
2019-03-06T15:22:14.277Z,18.93
2019-03-06T15:24:44.768Z,18.13
2019-03-06T15:27:16.758Z,18.70
2019-03-06T15:29:47.670Z,18.23
2019-03-06T15:32:18.091Z,17.40
2019-03-06T15:34:50.608Z,18.40
2019-03-06T15:37:21.480Z,17.97
2019-03-06T15:39:53.323Z,17.77
2019-03-06T15:42:24.669Z,18.20
2019-03-06T15:44:57.869Z,18.77
2019-03-06T15:47:33.737Z,18.40
2019-03-06T15:50:03.529Z,19.57
2019-03-06T15:52:35.555Z,20.23
2019-03-06T15:55:08.083Z,20.27
2019-03-06T15:57:39.166Z,19.37
2019-03-06T16:00:17.418Z,19.23
2019-03-06T16:02:49.489Z,19.10
2019-03-06T16:05:23.771Z,19.17
2019-03-06T16:07:56.281Z,19.00
2019-03-06T16:10:28.370Z,21.03
2019-03-06T16:13:00.964Z,17.70
2019-03-06T16:15:32.634Z,20.80
2019-03-06T16:18:04.468Z,19.47
2019-03-06T16:20:35.908Z,19.87
2019-03-06T16:23:07.430Z,21.00
2019-03-06T16:25:40.268Z,19.80
2019-03-06T16:28:11.758Z,19.80
2019-03-06T16:30:43.011Z,20.47
2019-03-06T16:33:15.054Z,20.70
2019-03-06T16:35:47.515Z,20.17
2019-03-06T16:38:20.840Z,20.23
2019-03-06T16:40:52.338Z,20.43
2019-03-06T16:43:24.058Z,22.40
2019-03-06T16:45:55.978Z,22.13
2019-03-06T16:48:28.054Z,22.47
2019-03-06T16:51:00.272Z,22.97
2019-03-06T16:53:40.331Z,22.03
2019-03-06T16:56:12.366Z,21.97
2019-03-06T16:58:43.700Z,21.97
2019-03-06T17:01:15.261Z,23.40
2019-03-06T17:03:49.181Z,21.90
2019-03-06T17:06:25.102Z,23.90
2019-03-06T17:08:56.335Z,23.30
2019-03-06T17:11:29.378Z,21.30
2019-03-06T17:14:01.271Z,22.80
2019-03-06T17:16:33.436Z,23.07
2019-03-06T17:19:06.323Z,22.40
2019-03-06T17:21:37.942Z,22.77
2019-03-06T17:24:10.816Z,23.67
2019-03-06T17:26:42.463Z,22.50
2019-03-06T17:29:17.636Z,22.67
2019-03-06T17:31:49.170Z,23.40
2019-03-06T17:34:21.018Z,25.53
2019-03-06T17:36:52.913Z,23.13
2019-03-06T17:39:25.222Z,24.10
2019-03-06T17:41:58.424Z,24.53
2019-03-06T17:44:30.142Z,24.87
2019-03-06T17:47:02.626Z,24.13
2019-03-06T17:49:35.078Z,22.77
2019-03-06T17:52:07.533Z,22.83
2019-03-06T17:54:39.548Z,22.70
2019-03-06T17:57:11.830Z,22.80
2019-03-06T17:59:43.424Z,23.20
2019-03-06T18:02:15.612Z,24.17
2019-03-06T18:04:46.471Z,24.23
2019-03-06T18:07:19.107Z,25.07
2019-03-06T18:09:51.192Z,23.40
2019-03-06T18:12:22.544Z,22.40
2019-03-06T18:14:53.848Z,24.53
2019-03-06T18:17:25.264Z,24.83
2019-03-06T18:19:55.913Z,22.53
2019-03-06T18:22:27.552Z,23.90
2019-03-06T18:25:02.089Z,24.50
2019-03-06T18:27:33.481Z,25.00
2019-03-06T18:30:05.028Z,26.10
2019-03-06T18:32:39.449Z,27.03
2019-03-06T18:35:14.278Z,27.40
2019-03-06T18:37:46.063Z,27.20
2019-03-06T18:40:18.833Z,25.07
2019-03-06T18:42:50.859Z,25.27
2019-03-06T18:45:23.274Z,24.47
2019-03-06T18:47:55.337Z,24.77
2019-03-06T18:50:27.633Z,25.40
2019-03-06T18:53:00.179Z,25.60
2019-03-06T18:55:31.981Z,24.93
2019-03-06T18:58:03.862Z,25.80
2019-03-06T19:00:35.788Z,24.77
2019-03-06T19:03:10.238Z,25.30
2019-03-06T19:05:42.302Z,28.10
2019-03-06T19:08:13.581Z,27.00
2019-03-06T19:10:45.946Z,25.90
2019-03-06T19:13:18.160Z,25.80
2019-03-06T19:15:49.339Z,27.20
2019-03-06T19:18:20.339Z,26.93
2019-03-06T19:20:51.266Z,25.60
2019-03-06T19:23:23.669Z,25.10
2019-03-06T19:25:55.315Z,25.17
2019-03-06T19:28:27.702Z,25.33
2019-03-06T19:30:59.910Z,25.80
2019-03-06T19:33:31.100Z,24.00
2019-03-06T19:36:03.001Z,26.83
2019-03-06T19:38:34.942Z,26.50
2019-03-06T19:41:06.343Z,26.90
2019-03-06T19:43:39.378Z,25.13
2019-03-06T19:46:11.051Z,27.57
2019-03-06T19:48:42.630Z,27.23
2019-03-06T19:51:14.531Z,27.03
2019-03-06T19:53:45.970Z,26.50
2019-03-06T19:56:18.635Z,27.70
2019-03-06T19:58:50.099Z,26.57
2019-03-06T20:01:22.417Z,25.27
2019-03-06T20:03:54.267Z,25.87
2019-03-06T20:06:27.339Z,26.00
2019-03-06T20:09:03.213Z,25.93
2019-03-06T20:11:39.817Z,26.90
2019-03-06T20:14:13.703Z,30.40
2019-03-06T20:16:45.116Z,29.67
2019-03-06T20:19:17.412Z,28.13
2019-03-06T20:21:49.273Z,28.80
2019-03-06T20:24:21.892Z,27.67
2019-03-06T20:26:54.113Z,25.20
2019-03-06T20:29:29.079Z,26.27
2019-03-06T20:32:01.405Z,23.67
2019-03-06T20:34:33.298Z,26.27
2019-03-06T20:37:05.751Z,25.70
2019-03-06T20:39:38.041Z,24.63
2019-03-06T20:42:09.663Z,25.60
2019-03-06T20:44:42.312Z,28.43
2019-03-06T20:47:14.145Z,25.50
2019-03-06T20:49:46.356Z,23.90
2019-03-06T20:52:18.343Z,25.57
2019-03-06T20:54:50.557Z,26.93
2019-03-06T20:57:24.617Z,27.40
2019-03-06T20:59:57.897Z,25.57
2019-03-06T21:02:29.778Z,29.73
2019-03-06T21:05:02.250Z,31.70
2019-03-06T21:07:41.978Z,26.80
2019-03-06T21:10:12.293Z,27.10
2019-03-06T21:12:43.900Z,30.20
2019-03-06T21:15:17.297Z,28.70
2019-03-06T21:17:48.882Z,29.10
2019-03-06T21:20:20.909Z,29.07
2019-03-06T21:22:53.062Z,26.00
2019-03-06T21:25:24.189Z,28.80
2019-03-06T21:27:56.767Z,29.03
2019-03-06T21:30:35.140Z,30.13
2019-03-06T21:33:07.341Z,31.03
2019-03-06T21:35:40.343Z,30.87
2019-03-06T21:38:12.576Z,31.30
2019-03-06T21:40:43.897Z,29.47
2019-03-06T21:43:17.192Z,28.80
2019-03-06T21:45:53.333Z,27.43
2019-03-06T21:48:25.357Z,28.50
2019-03-06T21:50:57.176Z,34.30
2019-03-06T21:53:28.938Z,34.57
2019-03-06T21:56:00.360Z,36.07
2019-03-06T21:58:31.505Z,29.97
2019-03-06T22:01:02.850Z,27.50
2019-03-06T22:03:33.858Z,28.10
2019-03-06T22:06:05.539Z,29.33
2019-03-06T22:08:37.057Z,26.90
2019-03-06T22:11:08.591Z,27.97
2019-03-06T22:13:39.288Z,24.20
2019-03-06T22:16:10.628Z,25.67
2019-03-06T22:18:42.068Z,23.07
2019-03-06T22:21:13.080Z,23.93
2019-03-06T22:23:43.821Z,23.93
2019-03-06T22:26:14.930Z,25.50
2019-03-06T22:28:45.819Z,26.10
2019-03-06T22:31:17.906Z,27.03
2019-03-06T22:33:48.712Z,27.37
2019-03-06T22:36:19.867Z,27.90
2019-03-06T22:38:50.338Z,28.20
2019-03-06T22:41:21.431Z,26.67
2019-03-06T22:43:52.929Z,26.03
2019-03-06T22:46:25.029Z,25.73
2019-03-06T22:48:56.137Z,23.77
2019-03-06T22:51:28.763Z,25.93
2019-03-06T22:53:59.752Z,23.43
2019-03-06T22:56:30.450Z,24.63
2019-03-06T22:59:01.994Z,25.10
2019-03-06T23:01:35.188Z,22.97
2019-03-06T23:04:06.846Z,24.00
2019-03-06T23:06:37.884Z,23.60
2019-03-06T23:09:12.788Z,24.17
2019-03-06T23:11:43.782Z,23.30
2019-03-06T23:14:15.168Z,24.10
2019-03-06T23:16:46.070Z,24.87
2019-03-06T23:19:17.102Z,24.60
2019-03-06T23:21:48.066Z,24.20
2019-03-06T23:24:19.112Z,24.17
2019-03-06T23:26:49.738Z,23.40
2019-03-06T23:29:20.360Z,23.20
2019-03-06T23:31:51.144Z,23.70
2019-03-06T23:34:21.518Z,24.63
2019-03-06T23:36:52.011Z,26.10
2019-03-06T23:39:22.702Z,24.00
2019-03-06T23:41:56.265Z,24.80
2019-03-06T23:44:26.975Z,23.70
2019-03-06T23:46:57.497Z,23.10
2019-03-06T23:49:28.141Z,23.40
2019-03-06T23:52:07.197Z,22.90
2019-03-06T23:54:38.215Z,22.10
2019-03-06T23:57:08.949Z,24.00
2019-03-06T23:59:39.562Z,22.83
